createdAt,value
2022-12-25T00:01:52.092Z,10.59
2022-12-25T00:03:57.784Z,10.61
2022-12-25T00:06:00.723Z,10.57
2022-12-25T00:08:03.547Z,10.55
2022-12-25T00:10:09.609Z,10.58
2022-12-25T00:12:12.426Z,10.56
2022-12-25T00:14:15.278Z,10.59
2022-12-25T00:16:21.719Z,10.63
2022-12-25T00:18:24.774Z,10.61
2022-12-25T00:20:27.568Z,10.61
2022-12-25T00:22:30.605Z,10.61
2022-12-25T00:24:33.475Z,10.63
2022-12-25T00:26:37.615Z,10.69
2022-12-25T00:28:40.881Z,10.66
2022-12-25T00:30:43.700Z,10.67
2022-12-25T00:32:46.451Z,10.69
2022-12-25T00:34:49.326Z,10.68
2022-12-25T00:36:52.339Z,10.65
2022-12-25T00:38:55.235Z,10.67
2022-12-25T00:40:58.018Z,10.63
2022-12-25T00:43:01.215Z,10.62
2022-12-25T00:45:05.728Z,10.65
2022-12-25T00:47:08.683Z,10.61
2022-12-25T00:49:12.430Z,10.63
2022-12-25T00:51:15.262Z,10.62
2022-12-25T00:53:18.070Z,10.62
2022-12-25T00:55:20.811Z,10.61
2022-12-25T00:57:23.525Z,10.61
2022-12-25T00:59:27.619Z,10.61
2022-12-25T01:01:30.740Z,10.59
2022-12-25T01:03:33.689Z,10.63
2022-12-25T01:05:36.501Z,10.61
2022-12-25T01:07:39.333Z,10.61
2022-12-25T01:10:00.188Z,10.60
2022-12-25T01:12:03.083Z,10.60
2022-12-25T01:14:05.914Z,10.61
2022-12-25T01:16:12.426Z,10.61
2022-12-25T01:18:15.349Z,10.61
2022-12-25T01:20:19.111Z,10.62
2022-12-25T01:22:22.112Z,10.62
2022-12-25T01:24:24.876Z,10.64
2022-12-25T01:26:28.762Z,10.65
2022-12-25T01:28:31.565Z,10.63
2022-12-25T01:30:35.366Z,10.60
2022-12-25T01:32:39.538Z,10.62
2022-12-25T01:34:42.310Z,10.59
2022-12-25T01:36:45.083Z,10.63
2022-12-25T01:38:48.472Z,10.63
2022-12-25T01:40:51.280Z,10.62
2022-12-25T01:42:54.199Z,10.69
2022-12-25T01:45:37.245Z,10.68
2022-12-25T01:47:41.439Z,10.69
2022-12-25T01:49:47.599Z,10.68
2022-12-25T01:51:55.503Z,10.65
2022-12-25T01:54:00.841Z,10.62
2022-12-25T01:56:08.031Z,10.63
2022-12-25T01:58:10.951Z,10.63
2022-12-25T02:00:16.148Z,10.65
2022-12-25T02:02:19.317Z,10.63
2022-12-25T02:04:38.480Z,10.63
2022-12-25T02:06:42.902Z,10.54
2022-12-25T02:08:45.858Z,10.52
2022-12-25T02:10:49.227Z,10.53
2022-12-25T02:12:52.600Z,10.54
2022-12-25T02:15:04.814Z,10.52
2022-12-25T02:17:14.331Z,10.52
2022-12-25T02:19:32.958Z,10.52
2022-12-25T02:22:01.026Z,10.54
2022-12-25T02:24:28.907Z,10.51
2022-12-25T02:26:58.483Z,10.48
2022-12-25T02:29:10.743Z,10.45
2022-12-25T02:31:18.712Z,10.46
2022-12-25T02:33:46.954Z,10.46
2022-12-25T02:35:54.877Z,10.43
2022-12-25T02:38:04.140Z,10.42
2022-12-25T02:40:15.076Z,10.45
2022-12-25T02:42:45.167Z,10.45
2022-12-25T02:45:10.372Z,10.45
2022-12-25T02:47:30.897Z,10.47
2022-12-25T02:49:52.723Z,10.46
2022-12-25T02:52:23.862Z,10.45
2022-12-25T02:54:57.942Z,10.45
2022-12-25T02:57:22.066Z,10.42
2022-12-25T02:59:42.782Z,10.39
2022-12-25T03:02:05.011Z,10.41
2022-12-25T03:04:29.894Z,10.39
2022-12-25T03:06:46.890Z,10.38
2022-12-25T03:08:54.890Z,10.38
2022-12-25T03:11:20.098Z,10.40
2022-12-25T03:13:27.290Z,10.44
2022-12-25T03:15:47.748Z,10.35
2022-12-25T03:17:51.011Z,10.29
2022-12-25T03:20:13.485Z,10.27
2022-12-25T03:22:38.248Z,10.30
2022-12-25T03:24:59.596Z,10.35
2022-12-25T03:27:02.499Z,10.35
2022-12-25T03:29:05.353Z,10.33
2022-12-25T03:31:14.973Z,10.30
2022-12-25T03:33:44.490Z,10.28
2022-12-25T03:36:02.569Z,10.26
2022-12-25T03:38:46.073Z,10.23
2022-12-25T03:41:16.644Z,10.18
2022-12-25T03:43:57.630Z,10.20
2022-12-25T03:46:24.467Z,10.21
2022-12-25T03:48:49.757Z,10.22
2022-12-25T03:51:16.267Z,10.25
2022-12-25T03:53:41.139Z,10.31
2022-12-25T03:56:02.336Z,10.27
2022-12-25T03:58:22.776Z,10.29
2022-12-25T04:00:43.078Z,10.31
2022-12-25T04:02:59.899Z,10.40
2022-12-25T04:05:22.912Z,10.40
2022-12-25T04:07:43.553Z,10.40
2022-12-25T04:10:03.919Z,10.40
2022-12-25T04:12:25.156Z,10.39
2022-12-25T04:14:45.394Z,10.41
2022-12-25T04:17:05.723Z,10.36
2022-12-25T04:19:27.998Z,10.39
2022-12-25T04:21:49.579Z,10.42
2022-12-25T04:24:09.888Z,10.43
2022-12-25T04:26:30.267Z,10.45
2022-12-25T04:28:50.661Z,10.46
2022-12-25T04:31:11.095Z,10.45
2022-12-25T04:33:31.798Z,10.48
2022-12-25T04:35:51.897Z,10.48
2022-12-25T04:37:56.154Z,10.50
2022-12-25T04:39:58.959Z,10.50
2022-12-25T04:42:01.804Z,10.54
2022-12-25T04:44:04.925Z,10.52
2022-12-25T04:46:07.774Z,10.51
2022-12-25T04:48:10.602Z,10.50
2022-12-25T04:50:13.699Z,10.50
2022-12-25T04:52:16.486Z,10.48
2022-12-25T04:54:20.691Z,10.53
2022-12-25T04:56:24.252Z,10.52
2022-12-25T04:58:27.008Z,10.55
2022-12-25T05:00:30.078Z,10.53
2022-12-25T05:02:33.495Z,10.56
2022-12-25T05:04:36.542Z,10.58
2022-12-25T05:06:40.185Z,10.59
2022-12-25T05:08:43.011Z,10.63
2022-12-25T05:10:47.254Z,10.62
2022-12-25T05:12:50.092Z,10.59
2022-12-25T05:14:52.956Z,10.62
2022-12-25T05:16:55.817Z,10.57
2022-12-25T05:18:58.656Z,10.56
2022-12-25T05:21:01.469Z,10.55
2022-12-25T05:23:04.292Z,10.54
2022-12-25T05:25:08.047Z,10.54
2022-12-25T05:27:12.219Z,10.56
2022-12-25T05:29:14.997Z,10.53
2022-12-25T05:31:18.441Z,10.52
2022-12-25T05:33:21.296Z,10.53
2022-12-25T05:35:24.183Z,10.54
2022-12-25T05:37:26.960Z,10.56
2022-12-25T05:39:30.177Z,10.56
2022-12-25T05:41:34.730Z,10.58
2022-12-25T05:43:38.997Z,10.46
2022-12-25T05:45:41.783Z,10.47
2022-12-25T05:47:44.580Z,10.54
2022-12-25T05:49:47.392Z,10.60
2022-12-25T05:51:50.243Z,10.61
2022-12-25T05:53:53.177Z,10.60
2022-12-25T05:55:56.012Z,10.58
2022-12-25T05:57:58.819Z,10.56
2022-12-25T06:00:03.009Z,10.60
2022-12-25T06:02:15.411Z,10.59
2022-12-25T06:04:18.328Z,10.64
2022-12-25T06:06:21.227Z,10.64
2022-12-25T06:08:23.981Z,10.60
2022-12-25T06:10:26.760Z,10.62
2022-12-25T06:12:29.586Z,10.64
2022-12-25T06:14:32.457Z,10.64
2022-12-25T06:16:38.363Z,10.67
2022-12-25T06:18:44.693Z,10.61
2022-12-25T06:20:48.085Z,10.62
2022-12-25T06:22:50.890Z,10.62
2022-12-25T06:24:54.303Z,10.63
2022-12-25T06:26:57.105Z,10.64
2022-12-25T06:28:59.920Z,10.65
2022-12-25T06:31:07.446Z,10.63
2022-12-25T06:33:11.869Z,10.63
2022-12-25T06:35:14.751Z,10.62
2022-12-25T06:37:17.565Z,10.63
2022-12-25T06:39:21.372Z,10.62
2022-12-25T06:41:26.179Z,10.61
2022-12-25T06:43:28.792Z,10.52
2022-12-25T06:45:31.664Z,10.52
2022-12-25T06:47:34.591Z,10.52
2022-12-25T06:49:38.802Z,10.50
2022-12-25T06:51:41.670Z,10.52
2022-12-25T06:53:44.462Z,10.50
2022-12-25T06:55:47.455Z,10.50
2022-12-25T06:57:50.225Z,10.51
2022-12-25T06:59:55.385Z,10.52
2022-12-25T07:01:58.801Z,10.53
2022-12-25T07:04:06.659Z,10.56
2022-12-25T07:06:10.729Z,10.54
2022-12-25T07:08:13.589Z,10.55
2022-12-25T07:10:16.546Z,10.54
2022-12-25T07:12:21.737Z,10.57
2022-12-25T07:14:24.885Z,10.57
2022-12-25T07:16:27.927Z,10.56
2022-12-25T07:18:31.398Z,10.55
2022-12-25T07:20:34.179Z,10.54
2022-12-25T07:22:38.329Z,10.48
2022-12-25T07:24:41.257Z,10.47
2022-12-25T07:26:44.096Z,10.46
2022-12-25T07:28:47.005Z,10.47
2022-12-25T07:30:50.239Z,10.47
2022-12-25T07:32:52.995Z,10.52
2022-12-25T07:34:55.913Z,10.53
2022-12-25T07:36:58.795Z,10.58
2022-12-25T07:39:02.893Z,10.57
2022-12-25T07:41:08.830Z,10.53
2022-12-25T07:43:11.573Z,10.54
2022-12-25T07:45:14.485Z,10.55
2022-12-25T07:47:17.467Z,10.57
2022-12-25T07:49:20.309Z,10.60
2022-12-25T07:51:23.513Z,10.56
2022-12-25T07:53:27.135Z,10.59
2022-12-25T07:55:31.307Z,10.60
2022-12-25T07:57:36.336Z,10.56
2022-12-25T07:59:39.075Z,10.43
2022-12-25T08:01:42.021Z,10.36
2022-12-25T08:03:49.270Z,10.39
2022-12-25T08:05:52.480Z,10.43
2022-12-25T08:07:58.076Z,10.50
2022-12-25T08:10:01.099Z,10.60
2022-12-25T08:12:05.497Z,10.64
2022-12-25T08:14:09.239Z,10.63
2022-12-25T08:16:15.252Z,10.65
2022-12-25T08:18:22.247Z,10.61
2022-12-25T08:20:28.906Z,10.60
2022-12-25T08:22:31.672Z,10.62
2022-12-25T08:24:34.601Z,10.59
2022-12-25T08:26:37.470Z,10.57
2022-12-25T08:28:41.959Z,10.57
2022-12-25T08:30:44.761Z,10.60
2022-12-25T08:32:47.596Z,10.63
2022-12-25T08:34:50.407Z,10.63
2022-12-25T08:36:53.146Z,10.63
2022-12-25T08:39:02.627Z,10.64
2022-12-25T08:41:06.641Z,10.63
2022-12-25T08:43:09.486Z,10.65
2022-12-25T08:45:13.923Z,10.65
2022-12-25T08:47:16.813Z,10.66
2022-12-25T08:49:19.652Z,10.68
2022-12-25T08:51:24.746Z,10.65
2022-12-25T08:53:27.698Z,10.57
2022-12-25T08:55:30.487Z,10.57
2022-12-25T08:57:33.312Z,10.56
2022-12-25T08:59:36.153Z,10.52
2022-12-25T09:01:40.314Z,10.53
2022-12-25T09:03:43.490Z,10.52
2022-12-25T09:05:46.865Z,10.55
2022-12-25T09:07:49.665Z,10.46
2022-12-25T09:09:52.503Z,10.44
2022-12-25T09:11:55.571Z,10.43
2022-12-25T09:13:58.448Z,10.46
2022-12-25T09:16:01.463Z,10.39
2022-12-25T09:18:05.922Z,10.39
2022-12-25T09:20:09.291Z,10.43
2022-12-25T09:22:12.095Z,10.50
2022-12-25T09:24:14.872Z,10.50
2022-12-25T09:26:19.443Z,10.55
2022-12-25T09:28:22.711Z,10.57
2022-12-25T09:30:25.568Z,10.55
2022-12-25T09:32:28.343Z,10.64
2022-12-25T09:34:32.614Z,10.72
2022-12-25T09:36:35.439Z,10.77
2022-12-25T09:38:38.269Z,10.83
2022-12-25T09:40:41.215Z,10.95
2022-12-25T09:42:45.060Z,11.01
2022-12-25T09:44:52.337Z,11.06
2022-12-25T09:47:00.317Z,11.18
2022-12-25T09:49:07.741Z,11.30
2022-12-25T09:51:16.613Z,11.36
2022-12-25T09:53:23.770Z,11.37
2022-12-25T09:55:30.856Z,11.43
2022-12-25T09:57:34.242Z,11.48
2022-12-25T09:59:37.053Z,11.50
2022-12-25T10:01:49.102Z,11.57
2022-12-25T10:04:07.020Z,11.66
2022-12-25T10:06:18.932Z,11.67
2022-12-25T10:08:35.981Z,11.64
2022-12-25T10:10:51.807Z,11.72
2022-12-25T10:13:02.765Z,11.75
2022-12-25T10:15:19.194Z,11.82
2022-12-25T10:17:33.437Z,11.83
2022-12-25T10:19:46.257Z,11.83
2022-12-25T10:21:55.077Z,11.84
2022-12-25T10:24:09.271Z,11.93
2022-12-25T10:26:16.541Z,11.94
2022-12-25T10:28:27.571Z,12.02
2022-12-25T10:30:32.305Z,11.99
2022-12-25T10:32:35.138Z,12.00
2022-12-25T10:34:41.598Z,12.00
2022-12-25T10:36:46.518Z,12.01
2022-12-25T10:38:50.992Z,12.04
2022-12-25T10:41:04.805Z,12.02
2022-12-25T10:43:13.872Z,11.91
2022-12-25T10:45:17.324Z,11.76
2022-12-25T10:47:25.395Z,11.63
2022-12-25T10:49:32.058Z,11.66
2022-12-25T10:51:37.336Z,11.62
2022-12-25T10:53:41.876Z,11.67
2022-12-25T10:55:55.311Z,11.72
2022-12-25T10:57:59.042Z,11.62
2022-12-25T11:00:01.983Z,11.62
2022-12-25T11:02:15.046Z,11.67
2022-12-25T11:04:22.546Z,11.69
2022-12-25T11:06:32.993Z,11.83
2022-12-25T11:08:36.143Z,11.87
2022-12-25T11:10:42.090Z,11.85
2022-12-25T11:12:50.505Z,11.84
2022-12-25T11:14:56.121Z,11.87
2022-12-25T11:17:08.405Z,11.93
2022-12-25T11:19:25.716Z,11.91
2022-12-25T11:21:30.735Z,11.88
2022-12-25T11:23:33.870Z,11.97
2022-12-25T11:25:36.708Z,11.86
2022-12-25T11:27:39.489Z,11.85
2022-12-25T11:29:47.773Z,11.89
2022-12-25T11:31:52.248Z,11.92
2022-12-25T11:34:00.057Z,11.94
2022-12-25T11:36:10.259Z,12.01
2022-12-25T11:38:13.091Z,12.02
2022-12-25T11:40:16.762Z,12.04
2022-12-25T11:42:23.362Z,12.10
2022-12-25T11:44:35.352Z,12.20
2022-12-25T11:46:45.846Z,12.23
2022-12-25T11:48:56.024Z,12.22
2022-12-25T11:51:02.278Z,12.20
2022-12-25T11:53:08.387Z,12.20
2022-12-25T11:55:19.464Z,12.22
2022-12-25T11:57:24.582Z,12.26
2022-12-25T11:59:33.935Z,12.31
2022-12-25T12:01:44.580Z,12.36
2022-12-25T12:03:47.518Z,12.44
2022-12-25T12:05:54.202Z,12.44
2022-12-25T12:08:00.856Z,12.46
2022-12-25T12:10:11.394Z,12.48
2022-12-25T12:12:21.548Z,12.49
2022-12-25T12:14:40.114Z,12.53
2022-12-25T12:16:44.403Z,12.46
2022-12-25T12:18:50.554Z,12.49
2022-12-25T12:21:05.832Z,12.49
2022-12-25T12:23:16.664Z,12.60
2022-12-25T12:25:20.150Z,12.57
2022-12-25T12:27:27.709Z,12.52
2022-12-25T12:29:36.251Z,12.53
2022-12-25T12:31:40.703Z,12.58
2022-12-25T12:33:51.645Z,12.63
2022-12-25T12:35:54.832Z,12.67
2022-12-25T12:38:01.505Z,12.88
2022-12-25T12:40:07.645Z,12.80
2022-12-25T12:42:15.752Z,12.89
2022-12-25T12:44:19.306Z,12.86
2022-12-25T12:46:30.691Z,12.87
2022-12-25T12:48:40.637Z,12.92
2022-12-25T12:50:44.897Z,12.89
2022-12-25T12:52:48.118Z,12.82
2022-12-25T12:54:57.665Z,12.84
2022-12-25T12:57:02.155Z,12.84
2022-12-25T12:59:05.003Z,12.76
2022-12-25T13:01:15.440Z,12.84
2022-12-25T13:03:39.512Z,12.79
2022-12-25T13:05:48.031Z,12.83
2022-12-25T13:08:00.459Z,12.86
2022-12-25T13:10:14.407Z,12.90
2022-12-25T13:12:18.496Z,12.94
2022-12-25T13:14:24.013Z,13.00
2022-12-25T13:16:30.953Z,13.02
2022-12-25T13:18:34.698Z,13.05
2022-12-25T13:20:46.280Z,13.08
2022-12-25T13:22:53.146Z,13.10
2022-12-25T13:24:58.310Z,13.12
2022-12-25T13:27:03.326Z,13.09
2022-12-25T13:29:11.288Z,13.15
2022-12-25T13:31:18.941Z,13.17
2022-12-25T13:33:21.836Z,13.19
2022-12-25T13:35:25.054Z,13.23
2022-12-25T13:37:31.479Z,13.28
2022-12-25T13:39:37.583Z,13.34
2022-12-25T13:42:04.668Z,13.33
2022-12-25T13:44:17.156Z,13.26
2022-12-25T13:46:26.961Z,13.25
2022-12-25T13:48:31.368Z,13.25
2022-12-25T13:50:35.809Z,13.25
2022-12-25T13:52:39.406Z,13.25
2022-12-25T13:54:57.523Z,13.24
2022-12-25T13:57:00.359Z,13.21
2022-12-25T13:59:04.797Z,13.16
2022-12-25T14:01:08.090Z,13.18
2022-12-25T14:03:19.222Z,13.23
2022-12-25T14:05:27.746Z,13.26
2022-12-25T14:07:30.579Z,13.26
2022-12-25T14:09:33.796Z,13.28
2022-12-25T14:11:39.480Z,13.21
2022-12-25T14:13:45.163Z,13.26
2022-12-25T14:15:49.605Z,13.20
2022-12-25T14:17:53.426Z,13.20
2022-12-25T14:20:08.016Z,13.24
2022-12-25T14:22:15.038Z,13.30
2022-12-25T14:24:26.806Z,13.26
2022-12-25T14:26:31.735Z,13.23
2022-12-25T14:28:37.674Z,13.28
2022-12-25T14:30:43.523Z,13.30
2022-12-25T14:32:51.689Z,13.23
2022-12-25T14:34:57.929Z,13.23
2022-12-25T14:37:01.500Z,13.19
2022-12-25T14:39:07.628Z,13.18
2022-12-25T14:41:25.904Z,13.14
2022-12-25T14:43:30.315Z,13.15
2022-12-25T14:45:36.113Z,13.11
2022-12-25T14:47:51.812Z,13.14
2022-12-25T14:49:54.928Z,13.11
2022-12-25T14:51:57.804Z,13.14
2022-12-25T14:54:03.835Z,13.09
2022-12-25T14:56:09.251Z,13.05
2022-12-25T14:58:21.619Z,13.02
2022-12-25T15:00:28.136Z,13.06
2022-12-25T15:02:41.308Z,12.97
2022-12-25T15:04:44.634Z,12.90
2022-12-25T15:06:55.302Z,12.90
2022-12-25T15:08:59.400Z,12.82
2022-12-25T15:11:03.540Z,12.79
2022-12-25T15:13:07.067Z,12.78
2022-12-25T15:15:10.961Z,12.76
2022-12-25T15:17:26.297Z,12.73
2022-12-25T15:19:36.869Z,12.74
2022-12-25T15:21:40.439Z,12.75
2022-12-25T15:23:43.416Z,12.72
2022-12-25T15:25:47.328Z,12.69
2022-12-25T15:27:50.310Z,12.63
2022-12-25T15:30:09.809Z,12.56
2022-12-25T15:32:17.704Z,12.60
2022-12-25T15:34:21.816Z,12.52
2022-12-25T15:36:26.548Z,12.53
2022-12-25T15:38:36.315Z,12.45
2022-12-25T15:40:39.510Z,12.45
2022-12-25T15:42:44.793Z,12.42
2022-12-25T15:44:48.073Z,12.42
2022-12-25T15:46:51.306Z,12.39
2022-12-25T15:48:54.133Z,12.40
2022-12-25T15:51:01.135Z,12.40
2022-12-25T15:53:05.272Z,12.44
2022-12-25T15:55:08.952Z,12.39
2022-12-25T15:57:18.759Z,12.44
2022-12-25T15:59:22.523Z,12.35
2022-12-25T16:01:25.406Z,12.25
2022-12-25T16:03:28.360Z,12.26
2022-12-25T16:05:31.194Z,12.28
2022-12-25T16:07:34.019Z,12.25
2022-12-25T16:09:38.391Z,12.25
2022-12-25T16:11:41.942Z,12.27
2022-12-25T16:13:45.836Z,12.23
2022-12-25T16:15:48.932Z,12.23
2022-12-25T16:17:51.814Z,12.22
2022-12-25T16:19:54.646Z,12.18
2022-12-25T16:21:57.598Z,12.17
2022-12-25T16:24:00.394Z,12.13
2022-12-25T16:26:04.597Z,12.18
2022-12-25T16:28:10.202Z,12.11
2022-12-25T16:30:15.800Z,12.06
2022-12-25T16:32:18.544Z,12.04
2022-12-25T16:34:21.354Z,11.98
2022-12-25T16:36:29.485Z,11.92
2022-12-25T16:38:32.432Z,11.86
2022-12-25T16:40:37.937Z,11.84
2022-12-25T16:42:42.094Z,11.84
2022-12-25T16:44:47.348Z,11.83
2022-12-25T16:46:50.310Z,11.85
2022-12-25T16:48:53.204Z,11.86
2022-12-25T16:50:56.337Z,11.88
2022-12-25T16:52:59.167Z,11.87
2022-12-25T16:55:03.119Z,11.88
2022-12-25T16:57:05.964Z,11.87
2022-12-25T16:59:10.177Z,11.85
2022-12-25T17:01:15.805Z,11.84
2022-12-25T17:03:19.017Z,11.83
2022-12-25T17:05:21.860Z,11.83
2022-12-25T17:07:24.732Z,11.82
2022-12-25T17:09:27.560Z,11.78
2022-12-25T17:11:31.043Z,11.75
2022-12-25T17:13:33.869Z,11.71
2022-12-25T17:15:38.006Z,11.70
2022-12-25T17:17:41.631Z,11.68
2022-12-25T17:19:44.484Z,11.64
2022-12-25T17:21:47.927Z,11.62
2022-12-25T17:23:58.065Z,11.60
2022-12-25T17:26:04.938Z,11.57
2022-12-25T17:28:07.750Z,11.54
2022-12-25T17:30:11.551Z,11.50
2022-12-25T17:32:15.948Z,11.48
2022-12-25T17:34:19.006Z,11.47
2022-12-25T17:36:23.052Z,11.47
2022-12-25T17:38:25.874Z,11.45
2022-12-25T17:40:29.802Z,11.44
2022-12-25T17:42:32.935Z,11.44
2022-12-25T17:44:35.864Z,11.39
2022-12-25T17:46:38.893Z,11.40
2022-12-25T17:48:43.496Z,11.38
2022-12-25T17:50:46.469Z,11.38
2022-12-25T17:52:49.306Z,11.32
2022-12-25T17:54:52.172Z,11.30
2022-12-25T17:56:55.092Z,11.32
2022-12-25T17:58:59.963Z,11.28
2022-12-25T18:01:06.708Z,11.28
2022-12-25T18:03:11.806Z,11.29
2022-12-25T18:05:16.685Z,11.31
2022-12-25T18:07:19.459Z,11.30
2022-12-25T18:09:22.287Z,11.33
2022-12-25T18:11:29.122Z,11.32
2022-12-25T18:13:32.610Z,11.32
2022-12-25T18:15:40.312Z,11.32
2022-12-25T18:17:43.269Z,11.31
2022-12-25T18:19:46.212Z,11.29
2022-12-25T18:21:51.138Z,11.28
2022-12-25T18:23:53.836Z,11.30
2022-12-25T18:25:57.040Z,11.27
2022-12-25T18:28:02.338Z,11.28
2022-12-25T18:30:06.700Z,11.37
2022-12-25T18:32:09.682Z,11.41
2022-12-25T18:34:12.511Z,11.23
2022-12-25T18:36:17.541Z,11.37
2022-12-25T18:38:21.727Z,11.30
2022-12-25T18:40:24.754Z,11.18
2022-12-25T18:42:39.664Z,11.26
2022-12-25T18:44:42.621Z,11.22
2022-12-25T18:46:45.390Z,11.25
2022-12-25T18:48:48.131Z,11.23
2022-12-25T18:50:57.071Z,11.27
2022-12-25T18:53:00.090Z,11.23
2022-12-25T18:55:04.699Z,11.26
2022-12-25T18:57:07.559Z,11.24
2022-12-25T18:59:10.404Z,11.26
2022-12-25T19:01:16.025Z,11.27
2022-12-25T19:03:19.061Z,11.21
2022-12-25T19:05:21.857Z,11.13
2022-12-25T19:07:24.841Z,11.18
2022-12-25T19:09:27.674Z,11.14
2022-12-25T19:11:31.796Z,11.16
2022-12-25T19:13:34.751Z,11.23
2022-12-25T19:15:42.239Z,11.32
2022-12-25T19:17:45.002Z,11.36
2022-12-25T19:19:48.092Z,11.35
2022-12-25T19:21:53.207Z,11.31
2022-12-25T19:23:57.052Z,11.31
2022-12-25T19:25:59.873Z,11.33
2022-12-25T19:28:04.043Z,11.43
2022-12-25T19:30:08.443Z,11.39
2022-12-25T19:32:11.471Z,11.37
2022-12-25T19:34:14.360Z,11.44
2022-12-25T19:36:17.524Z,11.40
2022-12-25T19:38:20.485Z,11.39
2022-12-25T19:40:23.481Z,11.50
2022-12-25T19:42:26.700Z,11.45
2022-12-25T19:44:30.867Z,11.45
2022-12-25T19:46:36.310Z,11.42
2022-12-25T19:48:39.035Z,11.38
2022-12-25T19:50:43.547Z,11.34
2022-12-25T19:52:46.347Z,11.41
2022-12-25T19:54:52.172Z,11.35
2022-12-25T19:56:54.925Z,11.38
2022-12-25T19:58:58.307Z,11.37
2022-12-25T20:01:05.983Z,11.33
2022-12-25T20:03:08.968Z,11.37
2022-12-25T20:05:11.827Z,11.42
2022-12-25T20:07:14.747Z,11.44
2022-12-25T20:09:21.341Z,11.51
2022-12-25T20:11:27.919Z,11.62
2022-12-25T20:13:30.707Z,11.63
2022-12-25T20:15:33.441Z,11.59
2022-12-25T20:17:37.670Z,11.67
2022-12-25T20:19:40.586Z,11.69
2022-12-25T20:21:43.382Z,11.68
2022-12-25T20:23:48.582Z,11.64
2022-12-25T20:25:52.520Z,11.67
2022-12-25T20:27:55.373Z,11.80
2022-12-25T20:29:58.206Z,11.83
2022-12-25T20:32:01.044Z,11.69
2022-12-25T20:34:08.247Z,11.68
2022-12-25T20:36:11.465Z,11.66
2022-12-25T20:38:14.328Z,11.71
2022-12-25T20:40:17.282Z,11.68
2022-12-25T20:42:20.334Z,11.81
2022-12-25T20:44:23.168Z,11.69
2022-12-25T20:46:26.466Z,11.78
2022-12-25T20:48:29.552Z,11.66
2022-12-25T20:50:33.704Z,11.59
2022-12-25T20:52:36.529Z,11.52
2022-12-25T20:54:39.409Z,11.57
2022-12-25T20:56:42.201Z,11.62
2022-12-25T20:58:45.209Z,11.52
2022-12-25T21:00:47.957Z,11.46
2022-12-25T21:02:50.942Z,11.44
2022-12-25T21:04:54.412Z,11.42
2022-12-25T21:06:58.529Z,11.40
2022-12-25T21:09:01.367Z,11.31
2022-12-25T21:11:05.219Z,11.29
2022-12-25T21:13:08.009Z,11.15
2022-12-25T21:15:15.431Z,11.20
2022-12-25T21:17:18.752Z,11.12
2022-12-25T21:19:21.544Z,11.18
2022-12-25T21:21:24.359Z,11.22
2022-12-25T21:23:29.901Z,11.23
2022-12-25T21:25:32.738Z,11.28
2022-12-25T21:27:35.564Z,11.24
2022-12-25T21:29:38.641Z,11.24
2022-12-25T21:31:55.402Z,11.20
2022-12-25T21:33:59.306Z,11.25
2022-12-25T21:36:07.067Z,11.34
2022-12-25T21:38:10.136Z,11.23
2022-12-25T21:40:16.643Z,11.22
2022-12-25T21:42:19.698Z,11.25
2022-12-25T21:44:22.551Z,11.27
2022-12-25T21:46:26.311Z,11.35
2022-12-25T21:48:29.153Z,11.32
2022-12-25T21:50:49.505Z,11.28
2022-12-25T21:52:52.275Z,11.27
2022-12-25T21:54:55.088Z,11.30
2022-12-25T21:56:59.150Z,11.34
2022-12-25T21:59:03.216Z,11.31
2022-12-25T22:01:06.458Z,11.29
2022-12-25T22:03:09.396Z,11.28
2022-12-25T22:05:33.811Z,11.32
2022-12-25T22:07:35.659Z,11.27
2022-12-25T22:09:38.834Z,11.23
2022-12-25T22:11:59.435Z,11.24
2022-12-25T22:14:52.072Z,11.22
2022-12-25T22:17:02.169Z,11.20
2022-12-25T22:19:22.257Z,11.18
2022-12-25T22:21:25.057Z,11.19
2022-12-25T22:23:27.846Z,11.21
2022-12-25T22:25:30.938Z,11.25
2022-12-25T22:27:36.231Z,11.22
2022-12-25T22:29:40.541Z,11.24
2022-12-25T22:31:46.932Z,11.31
2022-12-25T22:33:49.972Z,11.31
2022-12-25T22:36:02.296Z,11.27
2022-12-25T22:38:05.165Z,11.22
2022-12-25T22:40:09.931Z,11.19
2022-12-25T22:42:13.745Z,11.18
2022-12-25T22:44:18.100Z,11.19
2022-12-25T22:46:22.481Z,11.09
2022-12-25T22:48:25.316Z,11.14
2022-12-25T22:50:28.098Z,11.09
2022-12-25T22:52:30.884Z,11.10
2022-12-25T22:54:33.711Z,11.12
2022-12-25T22:56:36.822Z,11.08
2022-12-25T22:58:39.719Z,11.09
2022-12-25T23:00:46.626Z,11.15
2022-12-25T23:02:51.095Z,11.15
2022-12-25T23:04:54.211Z,11.16
2022-12-25T23:06:57.343Z,11.17
2022-12-25T23:09:00.701Z,11.24
2022-12-25T23:11:06.009Z,11.30
2022-12-25T23:13:33.233Z,11.29
2022-12-25T23:15:36.195Z,11.34
2022-12-25T23:17:56.854Z,11.33
2022-12-25T23:20:19.724Z,11.34
2022-12-25T23:22:39.942Z,11.36
2022-12-25T23:25:03.167Z,11.31
2022-12-25T23:27:05.990Z,11.31
2022-12-25T23:29:26.379Z,11.35
2022-12-25T23:31:32.081Z,11.42
2022-12-25T23:33:35.235Z,11.42
2022-12-25T23:35:39.335Z,11.40
2022-12-25T23:37:42.157Z,11.42
2022-12-25T23:39:45.202Z,11.59
2022-12-25T23:41:50.080Z,11.55
2022-12-25T23:43:52.900Z,11.45
2022-12-25T23:45:55.653Z,11.43
2022-12-25T23:47:58.470Z,11.41
2022-12-25T23:50:01.321Z,11.41
2022-12-25T23:52:05.892Z,11.39
2022-12-25T23:54:08.757Z,11.38
2022-12-25T23:56:11.601Z,11.40
2022-12-25T23:58:14.393Z,11.45
